Time;durP1;ratioP1;P1;durP2;ratioP2;P2;SDS_P1;SDS_P2;PMS_P1;PMS_P2;Temp;Humidity;BMP_temperature;BMP_pressure;BME280_temperature;BME280_humidity;BME280_pressure;Samples;Min_cycle;Max_cycle;Signal;HPM_P1;HPM_P2
2023/05/22 00:00:08;;;;;;;9.35;6.03;;;;;;;21.41;51.18;101444.38;5023812;28;20266;-70
2023/05/22 00:02:43;;;;;;;8.15;5.80;;;;;;;21.40;51.20;101449.84;5022366;28;20049;-69
2023/05/22 00:05:10;;;;;;;9.20;5.70;;;;;;;21.39;51.00;101433.09;5011434;28;20038;-71
2023/05/22 00:07:35;;;;;;;7.60;5.50;;;;;;;21.41;51.05;101430.31;5023814;28;20029;-71
2023/05/22 00:10:01;;;;;;;8.98;6.63;;;;;;;21.38;51.09;101423.47;5023485;28;20034;-71
2023/05/22 00:12:26;;;;;;;9.07;5.97;;;;;;;21.38;50.93;101429.59;5008917;28;20034;-72
2023/05/22 00:14:51;;;;;;;8.32;5.68;;;;;;;21.37;50.95;101427.09;5010736;28;20140;-71
2023/05/22 00:17:17;;;;;;;9.07;5.70;;;;;;;21.40;51.08;101432.13;5023634;28;20029;-71
2023/05/22 00:19:42;;;;;;;9.32;6.15;;;;;;;21.38;51.33;101429.59;5004269;28;20042;-71
2023/05/22 00:22:08;;;;;;;8.83;5.90;;;;;;;21.35;50.93;101429.03;5014204;28;20045;-71
2023/05/22 00:24:33;;;;;;;7.72;5.47;;;;;;;21.38;51.08;101428.78;5023822;28;20279;-70
2023/05/22 00:26:59;;;;;;;8.93;6.05;;;;;;;21.35;51.10;101427.22;5007506;28;20124;-70
2023/05/22 00:29:24;;;;;;;8.73;5.85;;;;;;;21.37;51.08;101430.56;5021540;28;20127;-70
2023/05/22 00:31:49;;;;;;;8.48;5.65;;;;;;;21.35;50.86;101426.38;5008348;28;20068;-71
2023/05/22 00:34:15;;;;;;;9.50;5.75;;;;;;;21.38;51.11;101428.78;5023385;28;20033;-70
2023/05/22 00:36:40;;;;;;;9.48;6.13;;;;;;;21.34;50.97;101420.22;5003618;28;20125;-70
2023/05/22 00:39:05;;;;;;;7.38;5.75;;;;;;;21.35;50.82;101418.44;5021103;28;20451;-70
2023/05/22 00:41:34;;;;;;;8.98;5.82;;;;;;;21.34;51.04;101422.88;5011904;28;20029;-70
2023/05/22 00:43:59;;;;;;;8.63;6.03;;;;;;;21.36;51.13;101420.09;5009605;28;20470;-71
2023/05/22 00:46:25;;;;;;;9.10;6.40;;;;;;;21.34;51.24;101422.03;5003006;28;20041;-70
2023/05/22 00:48:51;;;;;;;10.10;6.00;;;;;;;21.35;51.20;101421.09;5006994;28;20034;-70
2023/05/22 00:51:18;;;;;;;8.02;6.13;;;;;;;21.34;50.98;101422.03;5013273;28;20048;-70
2023/05/22 00:53:45;;;;;;;8.45;5.65;;;;;;;21.33;50.87;101426.50;5015799;28;20129;-70
2023/05/22 00:56:11;;;;;;;7.78;5.72;;;;;;;21.31;51.16;101415.19;5018576;28;20026;-71
2023/05/22 00:58:37;;;;;;;8.48;5.85;;;;;;;21.31;50.89;101420.47;5009913;28;20045;-71
2023/05/22 01:01:06;;;;;;;8.75;6.10;;;;;;;21.32;50.97;101424.81;5017970;28;20083;-70
2023/05/22 01:03:32;;;;;;;7.85;5.88;;;;;;;21.28;50.77;101420.75;5022845;28;20030;-71
2023/05/22 01:05:57;;;;;;;8.30;5.68;;;;;;;21.32;50.94;101424.81;5017847;28;20037;-70
2023/05/22 01:08:23;;;;;;;8.18;5.65;;;;;;;21.31;51.12;101422.31;5022521;28;20060;-71
2023/05/22 01:11:10;;;;;;;8.93;5.97;;;;;;;21.29;50.88;101413.66;5018349;28;20054;-71
2023/05/22 01:13:51;;;;;;;8.98;6.50;;;;;;;21.30;51.05;101413.53;5009196;28;20053;-72
2023/05/22 01:16:29;;;;;;;8.20;5.95;;;;;;;21.27;51.13;101411.13;5005649;28;20054;-70
2023/05/22 01:19:08;;;;;;;8.07;6.20;;;;;;;21.27;50.94;101411.13;5017973;28;20046;-70
2023/05/22 01:22:09;;;;;;;7.95;5.57;;;;;;;21.28;51.11;101415.44;5019246;28;20041;-70
2023/05/22 01:24:40;;;;;;;7.88;5.85;;;;;;;21.29;50.75;101413.66;4976476;28;20073;-70
2023/05/22 01:27:33;;;;;;;10.75;5.47;;;;;;;21.27;51.05;101410.28;5010987;28;20033;-71
2023/05/22 01:30:45;;;;;;;8.68;6.18;;;;;;;21.26;51.07;101417.41;5020346;28;20037;-70
2023/05/22 01:33:14;;;;;;;8.43;5.57;;;;;;;21.29;50.73;101413.66;5018975;28;21247;-70
2023/05/22 01:35:43;;;;;;;8.05;5.85;;;;;;;21.26;50.88;101405.97;5009888;28;20417;-71
2023/05/22 01:38:12;;;;;;;9.07;5.88;;;;;;;21.26;50.99;101400.66;5006470;28;20044;-70
2023/05/22 01:40:38;;;;;;;7.60;5.63;;;;;;;21.26;50.94;101414.75;5016878;28;20474;-70
2023/05/22 01:43:03;;;;;;;8.52;5.78;;;;;;;21.25;50.95;101409.56;5007493;28;20044;-70
2023/05/22 01:45:30;;;;;;;8.05;5.43;;;;;;;21.25;50.60;101422.81;5007200;28;20068;-69
2023/05/22 01:47:56;;;;;;;8.75;5.80;;;;;;;21.27;50.95;101410.28;5005389;28;20040;-71
2023/05/22 01:50:21;;;;;;;9.45;5.95;;;;;;;21.25;50.82;101401.63;5019908;28;20038;-71
2023/05/22 01:52:57;;;;;;;7.90;5.35;;;;;;;21.24;50.81;101408.75;5014041;28;20025;-71
2023/05/22 01:55:54;;;;;;;9.60;6.28;;;;;;;21.25;51.10;101410.41;5010218;28;20474;-70
2023/05/22 01:58:36;;;;;;;9.30;6.40;;;;;;;21.23;51.03;101398.28;5002581;28;20077;-70
2023/05/22 02:01:02;;;;;;;8.23;5.95;;;;;;;21.26;50.87;101408.63;5008787;28;20029;-70
2023/05/22 02:03:30;;;;;;;9.23;5.90;;;;;;;21.23;50.58;101396.44;5020477;28;20040;-70
2023/05/22 02:06:00;;;;;;;10.73;6.07;;;;;;;21.20;50.52;101397.56;5010749;28;20750;-70
2023/05/22 02:08:26;;;;;;;8.20;5.85;;;;;;;21.23;50.74;101404.41;5014544;28;20030;-70
2023/05/22 02:10:54;;;;;;;9.15;5.82;;;;;;;21.24;50.95;101402.56;5016415;28;20030;-70
2023/05/22 02:13:20;;;;;;;8.20;6.00;;;;;;;21.23;50.56;101398.28;5021172;28;20033;-70
2023/05/22 02:15:46;;;;;;;9.02;5.53;;;;;;;21.21;50.82;101390.44;5007736;28;20612;-70
2023/05/22 02:18:13;;;;;;;9.23;6.15;;;;;;;21.24;50.77;101400.78;5017398;28;20759;-70
2023/05/22 02:20:38;;;;;;;7.50;5.28;;;;;;;21.22;50.68;101394.78;5016945;28;20109;-70
2023/05/22 02:23:04;;;;;;;10.43;6.07;;;;;;;21.22;50.63;101396.56;5012004;28;20042;-71
2023/05/22 02:25:29;;;;;;;8.98;6.22;;;;;;;21.21;50.91;101390.44;5016708;28;20840;-71
2023/05/22 02:27:54;;;;;;;8.50;5.60;;;;;;;21.22;50.37;101396.56;5020747;28;20120;-71
2023/05/22 02:30:20;;;;;;;8.05;5.15;;;;;;;21.20;50.84;101391.41;5011292;28;20286;-69
2023/05/22 02:32:45;;;;;;;8.25;5.78;;;;;;;21.20;50.60;101394.91;5004588;28;20029;-71
2023/05/22 02:35:10;;;;;;;9.25;5.20;;;;;;;21.22;50.58;101392.13;5009259;28;20033;-71
2023/05/22 02:37:36;;;;;;;10.05;5.97;;;;;;;21.22;50.64;101391.28;5009938;28;20033;-72
2023/05/22 02:40:04;;;;;;;7.75;5.32;;;;;;;21.22;50.82;101385.97;5001745;28;20030;-70
2023/05/22 02:42:30;;;;;;;9.85;5.90;;;;;;;21.22;50.37;101391.28;5018399;28;20033;-70
2023/05/22 02:44:55;;;;;;;9.15;6.47;;;;;;;21.19;50.39;101393.22;5016156;28;20033;-71
2023/05/22 02:47:20;;;;;;;8.88;5.80;;;;;;;21.19;50.45;101390.56;5009469;28;20034;-71
2023/05/22 02:49:46;;;;;;;7.70;5.65;;;;;;;21.19;50.43;101381.78;5013274;28;20041;-70
2023/05/22 02:52:11;;;;;;;7.82;5.63;;;;;;;21.19;50.56;101382.63;5007495;28;20434;-71
2023/05/22 02:54:36;;;;;;;8.20;5.57;;;;;;;21.18;50.08;101374.81;5005771;28;20389;-71
2023/05/22 02:57:02;;;;;;;9.53;6.60;;;;;;;21.20;50.25;101379.00;5017544;28;20025;-71
2023/05/22 02:59:28;;;;;;;8.43;5.72;;;;;;;21.18;50.54;101382.75;5007607;28;20314;-71
2023/05/22 03:01:54;;;;;;;9.98;6.07;;;;;;;21.15;50.60;101375.91;5007921;28;20034;-70
2023/05/22 03:04:19;;;;;;;7.32;5.45;;;;;;;21.19;50.46;101387.94;5013089;28;20441;-70
2023/05/22 03:06:45;;;;;;;8.83;5.70;;;;;;;21.18;50.58;101380.94;5013227;28;20037;-70
2023/05/22 03:09:10;;;;;;;8.05;5.35;;;;;;;21.17;50.68;101384.59;5014005;28;20369;-70
2023/05/22 03:11:36;;;;;;;8.38;5.35;;;;;;;21.17;50.64;101381.06;5015290;28;20080;-69
2023/05/22 03:14:01;;;;;;;8.85;5.78;;;;;;;21.18;50.59;101383.59;5013055;28;20120;-71
2023/05/22 03:16:26;;;;;;;8.13;5.47;;;;;;;21.15;50.40;101378.56;5013490;28;20046;-71
2023/05/22 03:19:06;;;;;;;7.97;5.50;;;;;;;21.14;50.55;101370.72;5012563;28;20047;-70
2023/05/22 03:21:31;;;;;;;9.90;5.95;;;;;;;21.17;50.51;101368.69;5010573;28;20042;-71
2023/05/22 03:23:57;;;;;;;9.17;5.60;;;;;;;21.16;50.26;101366.16;5014617;28;20033;-70
2023/05/22 03:26:22;;;;;;;10.03;5.50;;;;;;;21.14;50.34;101368.94;5014814;28;20265;-71
2023/05/22 03:28:49;;;;;;;8.07;5.63;;;;;;;21.14;50.46;101363.63;5015877;28;20313;-71
2023/05/22 03:31:14;;;;;;;7.75;5.32;;;;;;;21.14;50.41;101368.94;5015638;28;20631;-70
2023/05/22 03:33:40;;;;;;;8.48;4.93;;;;;;;21.13;50.49;101366.41;5010603;28;20045;-71
2023/05/22 03:36:05;;;;;;;7.50;5.25;;;;;;;21.13;50.16;101372.56;5013601;28;20072;-69
2023/05/22 03:38:31;;;;;;;8.25;5.00;;;;;;;21.14;50.27;101363.63;5014442;28;20428;-70
2023/05/22 03:40:56;;;;;;;8.35;5.68;;;;;;;21.13;50.24;101375.19;5016111;28;20030;-70
2023/05/22 03:43:21;;;;;;;7.88;5.43;;;;;;;21.14;50.06;101368.94;5014324;28;20042;-70
2023/05/22 03:45:46;;;;;;;8.43;5.50;;;;;;;21.14;50.04;101370.72;5015112;28;20898;-70
2023/05/22 03:48:12;;;;;;;8.93;5.17;;;;;;;21.12;50.40;101373.50;5016430;28;20322;-69
2023/05/22 03:50:37;;;;;;;8.18;5.47;;;;;;;21.11;50.04;101368.34;5017295;28;20266;-70
2023/05/22 03:53:02;;;;;;;6.93;4.68;;;;;;;21.13;50.02;101367.25;5014529;28;20038;-70
2023/05/22 03:55:29;;;;;;;8.48;5.00;;;;;;;21.12;50.01;101367.38;5016694;28;20108;-69
2023/05/22 03:57:55;;;;;;;8.95;5.40;;;;;;;21.12;50.31;101370.03;5012749;28;20490;-70
2023/05/22 04:00:20;;;;;;;8.27;5.40;;;;;;;21.12;50.03;101359.44;5013689;28;20069;-70
2023/05/22 04:02:46;;;;;;;7.60;5.00;;;;;;;21.11;50.10;101358.59;5013684;28;20042;-70
2023/05/22 04:05:11;;;;;;;9.50;6.10;;;;;;;21.10;49.99;101356.91;5011521;28;20285;-71
2023/05/22 04:07:36;;;;;;;8.95;4.80;;;;;;;21.11;50.36;101366.56;5009525;28;20033;-70
2023/05/22 04:10:05;;;;;;;7.05;4.82;;;;;;;21.08;50.11;101358.88;5010012;28;20037;-70
2023/05/22 04:12:30;;;;;;;6.43;4.30;;;;;;;21.10;50.11;101361.38;5018833;28;20041;-69
2023/05/22 04:14:56;;;;;;;7.90;5.00;;;;;;;21.12;49.87;101367.38;5016881;28;20465;-70
2023/05/22 04:17:21;;;;;;;8.20;5.25;;;;;;;21.08;49.90;101356.22;5009484;28;20046;-70
2023/05/22 04:19:46;;;;;;;10.20;5.80;;;;;;;21.11;49.75;101360.38;5014836;28;20435;-70
2023/05/22 04:22:11;;;;;;;7.33;5.50;;;;;;;21.10;50.06;101366.69;5017121;28;20342;-70
2023/05/22 04:24:38;;;;;;;7.70;5.43;;;;;;;21.09;49.99;101365.81;5008682;28;20267;-70
2023/05/22 04:27:04;;;;;;;7.97;5.18;;;;;;;21.09;50.12;101362.34;5013604;28;20307;-70
2023/05/22 04:29:30;;;;;;;8.77;5.25;;;;;;;21.07;49.98;101365.13;5013147;28;20022;-70
2023/05/22 04:31:55;;;;;;;8.82;4.85;;;;;;;21.08;49.99;101373.91;5016489;28;20028;-70
2023/05/22 04:34:20;;;;;;;7.17;4.80;;;;;;;21.08;49.97;101374.75;5020865;28;20034;-70
2023/05/22 04:36:46;;;;;;;8.70;5.20;;;;;;;21.06;49.90;101374.06;5011494;28;20283;-70
2023/05/22 04:39:15;;;;;;;8.80;4.80;;;;;;;21.07;49.88;101377.53;5017960;28;20030;-71
2023/05/22 04:41:40;;;;;;;8.45;5.00;;;;;;;21.08;50.11;101384.50;5008232;28;20030;-71
2023/05/22 04:44:06;;;;;;;8.70;5.68;;;;;;;21.06;49.86;101395.25;5013655;28;20486;-71
2023/05/22 04:46:35;;;;;;;7.72;5.30;;;;;;;21.05;49.82;101396.22;5013008;28;20144;-71
2023/05/22 04:49:00;;;;;;;9.73;5.85;;;;;;;21.07;49.97;101393.44;5016144;28;20033;-71
2023/05/22 04:51:27;;;;;;;10.10;5.45;;;;;;;21.05;49.79;101396.22;5015646;28;20474;-69
2023/05/22 04:53:54;;;;;;;8.77;5.15;;;;;;;21.06;50.09;101399.69;5019268;28;20094;-71
2023/05/22 04:56:26;;;;;;;8.02;5.05;;;;;;;21.04;50.21;101402.47;5011877;28;20105;-70
2023/05/22 04:58:52;;;;;;;9.30;5.70;;;;;;;21.06;49.92;101397.06;5019887;28;20030;-70
2023/05/22 05:01:18;;;;;;;6.90;5.30;;;;;;;21.05;50.12;101398.03;5013070;28;20049;-70
2023/05/22 05:03:44;;;;;;;8.55;5.13;;;;;;;21.04;49.99;101402.47;5015631;28;20052;-70
2023/05/22 05:06:11;;;;;;;8.20;5.60;;;;;;;21.06;49.92;101405.88;5013316;28;20037;-71
2023/05/22 05:08:36;;;;;;;9.93;5.70;;;;;;;21.06;50.23;101411.16;5014166;28;20053;-69
2023/05/22 05:11:02;;;;;;;8.90;5.68;;;;;;;21.03;49.90;101403.47;5008185;28;20160;-70
2023/05/22 05:13:27;;;;;;;9.57;5.63;;;;;;;21.04;50.26;101404.31;5014516;28;20052;-71
2023/05/22 05:15:53;;;;;;;9.77;5.53;;;;;;;21.05;50.20;101411.28;5012085;28;20335;-69
2023/05/22 05:18:19;;;;;;;8.00;4.88;;;;;;;21.06;50.25;101415.59;5015903;28;20259;-71
2023/05/22 05:20:44;;;;;;;9.52;5.65;;;;;;;21.06;50.11;101412.94;5007226;28;20045;-71
2023/05/22 05:23:09;;;;;;;10.70;5.82;;;;;;;21.02;50.14;101413.22;5004238;28;20076;-71
2023/05/22 05:25:37;;;;;;;8.93;5.53;;;;;;;20.98;49.92;101403.84;5008998;28;20124;-70
2023/05/22 05:28:09;;;;;;;8.05;5.50;;;;;;;21.04;50.02;101415.72;5009212;28;20060;-70
2023/05/22 05:30:38;;;;;;;9.40;5.40;;;;;;;21.01;50.15;101414.19;5013690;28;20394;-70
2023/05/22 05:33:04;;;;;;;8.35;5.35;;;;;;;21.03;49.97;101414.06;5014572;28;20025;-72
2023/05/22 05:35:29;;;;;;;13.00;6.00;;;;;;;21.01;50.13;101414.19;5002414;28;20033;-70
2023/05/22 05:37:55;;;;;;;9.32;5.72;;;;;;;21.02;50.04;101413.22;5012912;28;20144;-71
2023/05/22 05:40:20;;;;;;;8.98;5.75;;;;;;;21.01;50.28;101411.56;5019615;28;20033;-71
2023/05/22 05:42:45;;;;;;;11.27;6.00;;;;;;;21.01;50.31;101411.56;5007280;28;20096;-71
2023/05/22 05:45:12;;;;;;;9.80;6.03;;;;;;;21.01;50.02;101411.56;5010007;28;20030;-70
2023/05/22 05:47:37;;;;;;;9.52;6.20;;;;;;;21.00;50.05;101415.16;5009985;28;20271;-71
2023/05/22 05:50:02;;;;;;;11.45;6.43;;;;;;;21.00;50.36;101412.50;5008403;28;20062;-70
2023/05/22 05:52:31;;;;;;;11.35;6.65;;;;;;;21.01;49.96;101416.00;5014963;28;20266;-70
2023/05/22 05:54:57;;;;;;;11.02;6.40;;;;;;;20.99;50.27;101402.03;5018683;28;20118;-71
2023/05/22 05:57:22;;;;;;;8.35;5.65;;;;;;;21.01;50.52;101408.91;5021648;28;20485;-71
2023/05/22 05:59:47;;;;;;;9.67;5.90;;;;;;;21.00;50.31;101407.22;5016475;28;20037;-70
2023/05/22 06:02:13;;;;;;;10.13;6.00;;;;;;;20.99;50.15;101416.13;5006326;28;20275;-71
2023/05/22 06:04:38;;;;;;;10.57;6.65;;;;;;;21.00;50.13;101419.63;5013967;28;20040;-70
2023/05/22 06:07:04;;;;;;;9.75;6.38;;;;;;;21.01;50.17;101423.94;5001577;28;20092;-70
2023/05/22 06:09:29;;;;;;;13.13;7.47;;;;;;;21.01;50.14;101432.75;5001660;28;20062;-70
2023/05/22 06:11:54;;;;;;;12.02;6.43;;;;;;;21.01;50.28;101434.53;5010278;28;20040;-70
2023/05/22 06:14:19;;;;;;;9.88;6.70;;;;;;;20.98;50.20;101425.06;5001489;28;20041;-70
2023/05/22 06:16:45;;;;;;;11.50;7.00;;;;;;;20.95;50.01;101424.44;5006172;28;20033;-70
2023/05/22 06:19:11;;;;;;;11.77;6.22;;;;;;;20.96;50.46;101423.50;5012690;28;20033;-72
2023/05/22 06:21:36;;;;;;;9.70;6.35;;;;;;;20.97;50.32;101427.84;5013600;28;20029;-72
2023/05/22 06:24:02;;;;;;;12.00;6.55;;;;;;;21.01;50.49;101430.09;5016756;28;20040;-72
2023/05/22 06:26:27;;;;;;;10.07;5.88;;;;;;;21.04;50.35;101431.63;5021180;28;20477;-72
2023/05/22 06:28:53;;;;;;;9.50;6.35;;;;;;;21.04;50.61;101428.97;5020978;28;20496;-72
2023/05/22 06:31:18;;;;;;;10.85;6.55;;;;;;;21.06;50.88;101434.16;5011430;28;20053;-72
2023/05/22 06:33:43;;;;;;;10.68;6.65;;;;;;;21.06;51.00;101440.31;5004107;28;20041;-72
2023/05/22 06:36:10;;;;;;;12.00;6.80;;;;;;;21.00;50.90;101427.56;5017905;28;20405;-71
2023/05/22 06:38:36;;;;;;;11.38;6.55;;;;;;;21.08;51.11;101440.16;5017478;28;20278;-71
2023/05/22 06:41:02;;;;;;;12.57;6.88;;;;;;;21.05;51.00;101441.28;5005118;28;20398;-72
2023/05/22 06:43:27;;;;;;;12.32;6.95;;;;;;;21.04;51.23;101439.56;5021159;28;20047;-74
2023/05/22 06:45:53;;;;;;;12.48;7.00;;;;;;;21.02;51.10;101434.41;5016385;28;20051;-76
2023/05/22 06:48:18;;;;;;;10.33;6.70;;;;;;;21.08;51.42;101450.75;5026763;28;20116;-73
2023/05/22 06:50:43;;;;;;;12.52;7.53;;;;;;;21.07;51.42;101447.28;5010455;28;20279;-74
2023/05/22 06:53:10;;;;;;;13.73;7.80;;;;;;;21.09;51.40;101452.44;5012438;28;20034;-73
2023/05/22 06:55:35;;;;;;;13.07;8.15;;;;;;;21.09;51.57;101455.09;5007437;28;20029;-74
2023/05/22 06:58:00;;;;;;;13.27;8.32;;;;;;;21.06;51.41;101450.91;5015993;28;20037;-73
2023/05/22 07:00:26;;;;;;;14.38;8.15;;;;;;;21.08;51.57;101456.91;5006130;28;20034;-73
2023/05/22 07:02:51;;;;;;;13.45;8.07;;;;;;;21.07;51.36;101449.09;5008874;28;20029;-72
2023/05/22 07:05:16;;;;;;;14.52;8.20;;;;;;;21.06;51.77;101466.81;5012580;28;20072;-72
2023/05/22 07:07:42;;;;;;;13.80;8.85;;;;;;;21.08;51.83;101466.66;5007383;28;20129;-73
2023/05/22 07:10:08;;;;;;;14.60;8.48;;;;;;;21.09;52.15;101477.13;5008877;28;20045;-73
2023/05/22 07:12:33;;;;;;;13.80;8.70;;;;;;;21.06;52.11;101476.56;5013970;28;20038;-73
2023/05/22 07:14:59;;;;;;;15.55;9.13;;;;;;;21.06;51.87;101481.84;5009797;28;20050;-73
2023/05/22 07:17:24;;;;;;;19.00;9.40;;;;;;;21.04;52.11;101489.94;5012513;28;21040;-72
2023/05/22 07:19:50;;;;;;;15.48;9.18;;;;;;;21.02;52.46;101481.28;5012777;28;20473;-73
2023/05/22 07:22:15;;;;;;;16.33;9.45;;;;;;;21.06;52.11;101484.50;5015809;28;20757;-71
2023/05/22 07:24:41;;;;;;;16.30;9.27;;;;;;;21.09;52.29;101477.13;5003187;28;20033;-69
2023/05/22 07:27:07;;;;;;;16.65;10.98;;;;;;;21.11;51.91;101485.81;5018517;28;21212;-73
2023/05/22 07:29:33;;;;;;;18.25;11.10;;;;;;;21.05;52.15;101483.66;5000253;28;20093;-70
2023/05/22 07:31:58;;;;;;;16.63;10.10;;;;;;;21.04;52.92;101486.44;5013776;28;20510;-71
2023/05/22 07:34:30;;;;;;;17.70;11.75;;;;;;;20.96;52.65;101477.31;5001509;28;20037;-72
2023/05/22 07:36:56;;;;;;;17.58;11.13;;;;;;;20.94;52.93;101479.25;5012915;28;20049;-70
2023/05/22 07:39:21;;;;;;;21.65;12.05;;;;;;;20.90;53.21;101477.00;5011599;28;20466;-69
2023/05/22 07:41:50;;;;;;;21.58;12.23;;;;;;;20.88;53.24;101485.06;5020040;28;20099;-70
2023/05/22 07:44:15;;;;;;;24.08;13.45;;;;;;;20.89;53.16;101485.94;5005594;28;20034;-71
2023/05/22 07:46:40;;;;;;;21.02;12.30;;;;;;;20.90;53.26;101484.94;5004301;28;20078;-70
2023/05/22 07:49:06;;;;;;;21.23;13.40;;;;;;;20.91;53.14;101492.75;5014266;28;20469;-71
2023/05/22 07:51:31;;;;;;;23.90;13.07;;;;;;;20.90;53.21;101488.41;5019324;28;20456;-70
2023/05/22 07:53:57;;;;;;;20.88;13.23;;;;;;;20.94;53.11;101489.03;5010772;28;20270;-70
2023/05/22 07:56:24;;;;;;;20.45;13.02;;;;;;;20.95;53.00;101483.59;5024804;28;20400;-72
2023/05/22 07:58:50;;;;;;;18.92;12.50;;;;;;;20.99;53.03;101495.59;5005119;28;20383;-72
2023/05/22 08:01:15;;;;;;;21.55;13.23;;;;;;;21.00;53.14;101492.00;5011699;28;20040;-71
2023/05/22 08:03:41;;;;;;;20.20;13.32;;;;;;;21.04;52.66;101499.69;5007026;28;20033;-72
2023/05/22 08:06:06;;;;;;;19.75;13.45;;;;;;;21.06;52.76;101503.91;5015184;28;20033;-73
2023/05/22 08:08:32;;;;;;;20.80;14.02;;;;;;;21.08;52.62;101507.25;5022445;28;20036;-73
2023/05/22 08:10:58;;;;;;;27.05;13.95;;;;;;;21.07;53.05;101496.78;5016605;28;20446;-73
2023/05/22 08:13:23;;;;;;;19.80;13.75;;;;;;;21.09;52.90;101492.19;5022708;28;20030;-71
2023/05/22 08:15:49;;;;;;;19.42;12.88;;;;;;;21.12;52.67;101502.53;5017641;28;20081;-71
2023/05/22 08:18:14;;;;;;;21.38;14.30;;;;;;;21.12;52.86;101491.94;5015387;28;20034;-73
2023/05/22 08:20:40;;;;;;;22.08;14.43;;;;;;;21.18;52.98;101494.09;5009416;28;20036;-68
2023/05/22 08:23:05;;;;;;;22.25;13.45;;;;;;;21.11;52.67;101479.66;5014844;28;20041;-70
2023/05/22 08:25:30;;;;;;;23.08;14.20;;;;;;;21.15;52.29;101486.38;5001518;28;20033;-72
2023/05/22 08:27:56;;;;;;;21.27;13.00;;;;;;;21.17;52.26;101492.38;5003027;28;20611;-72
2023/05/22 08:30:21;;;;;;;23.25;14.73;;;;;;;21.16;52.79;101485.44;5009089;28;20324;-72
2023/05/22 08:32:46;;;;;;;19.83;13.65;;;;;;;21.15;52.75;101491.69;5022652;28;20029;-70
2023/05/22 08:35:13;;;;;;;25.25;15.05;;;;;;;21.15;52.78;101486.38;5021397;28;20036;-71
2023/05/22 08:37:38;;;;;;;22.15;14.68;;;;;;;21.17;52.70;101487.09;5003060;28;20030;-71
2023/05/22 08:40:04;;;;;;;24.08;15.80;;;;;;;21.21;52.52;101483.22;5014057;28;20034;-70
2023/05/22 08:42:30;;;;;;;24.13;16.38;;;;;;;21.23;52.64;101493.69;5014273;28;20034;-70
2023/05/22 08:44:56;;;;;;;24.10;15.90;;;;;;;21.24;52.75;101495.34;5016775;28;20392;-70
2023/05/22 08:47:24;;;;;;;23.15;15.60;;;;;;;21.22;52.79;101490.22;5014315;28;20041;-71
2023/05/22 08:49:53;;;;;;;24.27;16.40;;;;;;;21.27;52.91;101485.34;5019494;28;20029;-70
2023/05/22 08:52:21;;;;;;;23.08;14.63;;;;;;;21.28;52.55;101489.66;5016904;28;20034;-71
2023/05/22 08:54:54;;;;;;;23.70;14.88;;;;;;;21.28;52.77;101489.66;5008865;28;20478;-73
2023/05/22 08:57:20;;;;;;;24.48;15.85;;;;;;;21.32;52.58;101493.75;5015577;28;20033;-69
2023/05/22 08:59:46;;;;;;;22.52;15.05;;;;;;;21.35;52.45;101492.66;5011975;28;20038;-70
2023/05/22 09:02:13;;;;;;;27.38;16.92;;;;;;;21.32;52.71;101492.91;5017278;28;20036;-70
2023/05/22 09:04:39;;;;;;;24.73;15.13;;;;;;;21.34;52.64;101490.97;5021737;28;20034;-71
2023/05/22 09:07:05;;;;;;;26.77;16.58;;;;;;;21.33;52.66;101487.50;5009390;28;20055;-70
2023/05/22 09:09:35;;;;;;;23.67;16.63;;;;;;;21.29;52.68;101487.88;5012753;28;20033;-70
2023/05/22 09:12:01;;;;;;;24.33;16.35;;;;;;;21.30;52.58;101490.41;5002823;28;20038;-71
2023/05/22 09:14:26;;;;;;;22.15;15.30;;;;;;;21.34;52.37;101493.63;5019242;28;20485;-69
2023/05/22 09:16:53;;;;;;;30.92;20.90;;;;;;;21.30;52.97;101494.84;5005865;28;20029;-67
2023/05/22 09:19:19;;;;;;;27.15;19.00;;;;;;;21.28;52.83;101492.31;5015676;28;20514;-68
2023/05/22 09:21:44;;;;;;;24.42;17.85;;;;;;;21.29;52.75;101490.53;5021336;28;20116;-69
2023/05/22 09:24:10;;;;;;;26.20;16.88;;;;;;;21.28;52.90;101492.31;5009411;28;20038;-70
2023/05/22 09:26:37;;;;;;;28.17;18.60;;;;;;;21.42;52.60;101496.47;5004511;28;20136;-73
2023/05/22 09:29:05;;;;;;;27.50;17.73;;;;;;;21.51;52.45;101490.41;5016767;28;20491;-73
2023/05/22 09:31:30;;;;;;;23.55;16.23;;;;;;;21.53;52.00;101491.09;5017195;28;20390;-74
2023/05/22 09:33:56;;;;;;;25.38;18.25;;;;;;;21.54;51.89;101479.53;5013633;28;20029;-73
2023/05/22 09:36:30;;;;;;;25.42;17.13;;;;;;;21.55;51.94;101490.97;5005761;28;20389;-72
2023/05/22 09:38:56;;;;;;;22.83;16.98;;;;;;;21.55;51.77;101485.66;5011138;28;20095;-73
2023/05/22 09:41:22;;;;;;;26.00;17.33;;;;;;;21.54;51.76;101484.00;5019938;28;20517;-72
2023/05/22 09:43:50;;;;;;;27.88;18.52;;;;;;;21.55;52.18;101483.03;5011691;28;20168;-72
2023/05/22 09:46:16;;;;;;;24.23;16.90;;;;;;;21.52;52.04;101480.63;5013717;28;20037;-74
2023/05/22 09:48:41;;;;;;;25.23;17.77;;;;;;;21.53;52.72;101482.31;5003441;28;20044;-73
2023/05/22 09:51:09;;;;;;;25.57;18.07;;;;;;;21.49;52.43;101475.59;5007494;28;20052;-74
2023/05/22 09:53:34;;;;;;;22.08;16.00;;;;;;;21.47;51.83;101478.34;5004585;28;20278;-73
2023/05/22 09:56:04;;;;;;;22.73;16.83;;;;;;;21.44;52.15;101469.81;5015051;28;20025;-73
2023/05/22 09:58:32;;;;;;;21.45;16.25;;;;;;;21.42;52.02;101480.53;5020096;28;20481;-73
2023/05/22 10:00:58;;;;;;;23.25;15.98;;;;;;;21.38;52.28;101469.38;5007825;28;20041;-73
2023/05/22 10:03:25;;;;;;;22.10;17.13;;;;;;;21.36;52.16;101473.97;5012115;28;20075;-73
2023/05/22 10:05:53;;;;;;;22.52;16.35;;;;;;;21.35;52.35;101472.28;5009266;28;20052;-73
2023/05/22 10:08:27;;;;;;;20.90;17.08;;;;;;;21.34;52.36;101485.66;5011965;28;20033;-71
2023/05/22 10:10:52;;;;;;;23.33;15.93;;;;;;;21.37;52.47;101480.09;4999941;28;20069;-71
2023/05/22 10:13:19;;;;;;;22.33;16.38;;;;;;;21.35;52.28;101472.28;5005922;28;20092;-70
2023/05/22 10:15:47;;;;;;;20.92;16.30;;;;;;;21.32;52.77;101472.53;5000754;28;20061;-67
2023/05/22 10:18:14;;;;;;;23.67;15.90;;;;;;;21.33;52.66;101465.41;5008491;28;20044;-69
2023/05/22 10:20:40;;;;;;;23.20;15.27;;;;;;;21.34;52.71;101469.75;5013906;28;20565;-68
2023/05/22 10:23:06;;;;;;;24.02;15.60;;;;;;;21.34;52.56;101472.41;5001151;28;20129;-69
2023/05/22 10:25:33;;;;;;;22.13;14.95;;;;;;;21.32;52.84;101471.72;5010788;28;20129;-70
2023/05/22 10:28:01;;;;;;;18.77;14.77;;;;;;;21.32;52.91;101469.06;5011894;28;20068;-73
2023/05/22 10:30:35;;;;;;;19.73;14.95;;;;;;;21.38;52.73;101471.19;5017681;28;20572;-71
2023/05/22 10:33:08;;;;;;;;;;;;;;;21.46;52.69;101467.84;5016249;28;20482;-70
2023/05/22 10:35:46;;;;;;;19.02;13.85;;;;;;;21.51;52.68;101468.34;5008255;28;19967;-70
2023/05/22 10:38:45;;;;;;;20.50;14.23;;;;;;;21.56;52.31;101464.31;5013263;28;20033;-70
2023/05/22 10:41:11;;;;;;;19.83;14.32;;;;;;;21.61;52.34;101455.13;5016259;28;20088;-72
2023/05/22 10:43:41;;;;;;;19.00;14.02;;;;;;;21.61;52.78;101458.63;5016878;28;20806;-69
2023/05/22 10:46:08;;;;;;;22.20;14.73;;;;;;;21.59;52.56;101451.75;5019925;28;20036;-70
2023/05/22 10:48:37;;;;;;;19.95;14.20;;;;;;;21.59;52.62;101451.75;5019793;28;20457;-70
2023/05/22 10:51:03;;;;;;;20.42;14.52;;;;;;;21.60;52.73;101464.06;5020343;28;20025;-72
2023/05/22 10:53:31;;;;;;;17.98;14.00;;;;;;;21.61;52.82;101449.84;5019970;28;20095;-71
2023/05/22 10:56:01;;;;;;;20.88;14.65;;;;;;;21.67;52.94;101460.75;5008232;28;20030;-73
2023/05/22 10:58:28;;;;;;;20.33;13.80;;;;;;;21.66;52.75;101450.28;5000758;28;20069;-71
2023/05/22 11:01:07;;;;;;;22.60;13.60;;;;;;;21.67;52.78;101458.09;5006956;28;20549;-72
2023/05/22 11:04:10;;;;;;;18.48;13.63;;;;;;;21.70;52.86;101457.00;5005215;28;20065;-72
2023/05/22 11:06:45;;;;;;;18.60;13.50;;;;;;;21.71;52.86;101448.91;5000402;28;20116;-70
2023/05/22 11:09:31;;;;;;;16.08;12.90;;;;;;;21.68;53.18;101450.97;5013367;28;20057;-69
2023/05/22 11:12:18;;;;;;;17.65;13.00;;;;;;;21.71;53.14;101451.56;5017882;28;20382;-70
2023/05/22 11:14:48;;;;;;;18.20;12.90;;;;;;;21.73;53.27;101454.09;5010349;28;20061;-73
2023/05/22 11:17:17;;;;;;;16.63;12.77;;;;;;;21.68;53.34;101440.34;5019717;28;20030;-70
2023/05/22 11:19:42;;;;;;;17.90;12.70;;;;;;;21.68;53.47;101443.88;5019758;28;20420;-70